Terminal Aerodrome Forecast
Issued by NWS Dodge City, KS

Home | Current Version | Previous Version | Text Only | Print | Product List | Glossary On
Versions: 1 2 3 4 5 6 7 8 9 10 11 12 13 14 15 16 17 18 19 20 21 22 23 24 25 26 27 28 29 30
216
FTUS43 KDDC 142209 AAA
TAFDDC
TAF AMD
KDDC 142209Z 1422/1518 27010KT P6SM SKC
     FM150700 33012KT P6SM BKN070
     FM150900 02015G23KT P6SM BKN008
     FM151600 01019G27KT P6SM SCT015=

USA.gov is the U.S. government's official web portal to all federal, state and local government web resources and services.